PWSweather.com
Personal Weather Stations
Station Observations
KMAMEDFI2
Medfield, MA 02052

Medfield, MA 02052

Lat: 42.1900822, Lon: -71.3296889

Elevation: 138

Station Type: Rainwise WS MK-III

http://www.medfieldweather.com

High Low Average
Temperature 57.0°F13.9°C 31.1°F-0.5°C 45.6°F7.6°C
Dew Point 52.6°F11.4°C 24.1°F-4.4°C 39.4°F4.1°C
Winds 17.3 mph 27.8 kmh Calm Calm 5.0 mph WSW8.0 kmh WSW
Wind Gusts 26.5 mph42.6 kmh -- 9.0 mph14.5 kmh
Humidity 97% 58% 80%
Pressure 30.07 in1018.3 mb 29.49 in998.6 mb -
Precipitation 0.34 in8.6 mm - -
Hour Temp Dew Point Humidity Winds Wind Gusts Pressure Precip Precip Rate Daily Precip Total
12:00 AM 36.6°F2.6°C 35.4°F1.9°C 95% 3.5 mph E5.6 kmh E 2.3 mph3.7 kmh 30.00 in1015.9 mb - 0.15 in3.8 mm 0.37 in9.4 mm
12:10 AM 36.7°F2.6°C 35.4°F1.9°C 95% 2.3 mph SE3.7 kmh SE 2.3 mph3.7 kmh 29.97 in1014.9 mb - 0.17 in4.3 mm 0.40 in10.2 mm
12:20 AM 36.8°F2.7°C 35.5°F1.9°C 95% 2.3 mph E3.7 kmh E 2.3 mph3.7 kmh 29.95 in1014.2 mb - 0.17 in4.3 mm 0.43 in10.9 mm
12:30 AM 36.9°F2.7°C 35.6°F2.0°C 95% 2.3 mph ESE3.7 kmh ESE 2.3 mph3.7 kmh 29.95 in1014.2 mb - 0.16 in4.1 mm 0.45 in11.4 mm
12:40 AM 37.0°F2.8°C 35.7°F2.1°C 95% Calm Calm 2.3 mph3.7 kmh 29.94 in1013.9 mb - 0.18 in4.6 mm 0.49 in12.4 mm
12:50 AM 37.1°F2.8°C 35.8°F2.1°C 95% Calm Calm -- 29.92 in1013.2 mb - 0.18 in4.6 mm 0.51 in13.0 mm
01:00 AM 37.3°F2.9°C 36.0°F2.2°C 95% 2.3 mph SSW3.7 kmh SSW 2.3 mph3.7 kmh 29.91 in1012.9 mb - 0.17 in4.3 mm 1.18 in30.0 mm
01:10 AM 37.6°F3.1°C 36.3°F2.4°C 95% Calm Calm -- 29.90 in1012.5 mb - 0.17 in4.3 mm 0.03 in0.8 mm
01:20 AM 37.8°F3.2°C 36.5°F2.5°C 95% 3.5 mph SE5.6 kmh SE 2.3 mph3.7 kmh 29.90 in1012.5 mb - 0.17 in4.3 mm 0.06 in1.5 mm
01:30 AM 38.1°F3.4°C 37.1°F2.8°C 96% 1.2 mph SE1.9 kmh SE 5.8 mph9.3 kmh 29.86 in1011.2 mb - 0.18 in4.6 mm 0.09 in2.3 mm
01:40 AM 38.4°F3.6°C 37.4°F3.0°C 96% Calm Calm -- 29.86 in1011.2 mb - 0.16 in4.1 mm 0.11 in2.8 mm
01:50 AM 38.7°F3.7°C 37.7°F3.2°C 96% Calm Calm 2.3 mph3.7 kmh 29.85 in1010.8 mb - 0.16 in4.1 mm 0.13 in3.3 mm
02:00 AM 38.9°F3.8°C 37.9°F3.3°C 96% Calm Calm 2.3 mph3.7 kmh 29.84 in1010.5 mb - 0.15 in3.8 mm 0.15 in3.8 mm
02:10 AM 39.1°F3.9°C 38.1°F3.4°C 96% Calm Calm -- 29.83 in1010.2 mb - 0.15 in3.8 mm 0.17 in4.3 mm
02:20 AM 39.2°F4.0°C 38.2°F3.4°C 96% 1.2 mph SE1.9 kmh SE 2.3 mph3.7 kmh 29.80 in1009.1 mb - 0.13 in3.3 mm 0.18 in4.6 mm
02:30 AM 39.6°F4.2°C 38.6°F3.7°C 96% 2.3 mph SE3.7 kmh SE 2.3 mph3.7 kmh 29.80 in1009.1 mb - 0.11 in2.8 mm 0.19 in4.8 mm
02:40 AM 40.2°F4.6°C 39.2°F4.0°C 96% 2.3 mph SSE3.7 kmh SSE 2.3 mph3.7 kmh 29.78 in1008.5 mb - 0.09 in2.3 mm 0.20 in5.1 mm
02:50 AM 40.6°F4.8°C 39.6°F4.2°C 96% 2.3 mph SE3.7 kmh SE 2.3 mph3.7 kmh 29.77 in1008.1 mb - 0.09 in2.3 mm 0.22 in5.6 mm
03:00 AM 41.2°F5.1°C 40.2°F4.6°C 96% 2.3 mph ESE3.7 kmh ESE 4.6 mph7.4 kmh 29.76 in1007.8 mb - 0.09 in2.3 mm 0.24 in6.1 mm
03:10 AM 41.5°F5.3°C 40.4°F4.7°C 96% 1.2 mph ESE1.9 kmh ESE 2.3 mph3.7 kmh 29.75 in1007.5 mb - 0.09 in2.3 mm 0.26 in6.6 mm
03:20 AM 41.8°F5.4°C 40.7°F4.8°C 96% 2.3 mph SE3.7 kmh SE 2.3 mph3.7 kmh 29.73 in1006.8 mb - 0.10 in2.5 mm 0.28 in7.1 mm
03:30 AM 42.2°F5.7°C 41.2°F5.1°C 96% 2.3 mph E3.7 kmh E 2.3 mph3.7 kmh 29.69 in1005.4 mb - 0.10 in2.5 mm 0.29 in7.4 mm
03:40 AM 42.6°F5.9°C 41.5°F5.3°C 96% 1.2 mph ESE1.9 kmh ESE 4.6 mph7.4 kmh 29.68 in1005.1 mb - 0.10 in2.5 mm 0.30 in7.6 mm
03:50 AM 43.1°F6.2°C 42.0°F5.6°C 96% 2.3 mph SE3.7 kmh SE 4.6 mph7.4 kmh 29.66 in1004.4 mb - 0.09 in2.3 mm 0.31 in7.9 mm
04:00 AM 43.6°F6.4°C 42.5°F5.8°C 96% 2.3 mph SE3.7 kmh SE 2.3 mph3.7 kmh 29.62 in1003.0 mb - 0.10 in2.5 mm 0.33 in8.4 mm
04:10 AM 43.9°F6.6°C 42.9°F6.1°C 96% 3.5 mph SE5.6 kmh SE 12.7 mph20.4 kmh 29.61 in1002.7 mb - 0.08 in2.0 mm 0.33 in8.4 mm
04:20 AM 44.5°F6.9°C 43.4°F6.3°C 96% 2.3 mph SW3.7 kmh SW 5.8 mph9.3 kmh 29.60 in1002.4 mb - 0.06 in1.5 mm 0.33 in8.4 mm
04:30 AM 44.9°F7.2°C 43.8°F6.6°C 96% 3.5 mph SE5.6 kmh SE 6.9 mph11.1 kmh 29.59 in1002.0 mb - 0.04 in1.0 mm 0.33 in8.4 mm
04:40 AM 45.5°F7.5°C 44.7°F7.1°C 97% 4.6 mph SSW7.4 kmh SSW 5.8 mph9.3 kmh 29.59 in1002.0 mb - 0.03 in0.8 mm 0.33 in8.4 mm
04:50 AM 45.9°F7.7°C 45.1°F7.3°C 97% 3.5 mph SSE5.6 kmh SSE 5.8 mph9.3 kmh 29.57 in1001.4 mb - 0.02 in0.5 mm 0.33 in8.4 mm
05:00 AM 46.5°F8.1°C 45.7°F7.6°C 97% 3.5 mph SW5.6 kmh SW 5.8 mph9.3 kmh 29.56 in1001.0 mb - 0.01 in0.3 mm 0.33 in8.4 mm
05:10 AM 46.8°F8.2°C 46.0°F7.8°C 97% 2.3 mph SE3.7 kmh SE 5.8 mph9.3 kmh 29.55 in1000.7 mb - 0.00 in0.0 mm 0.33 in8.4 mm
05:20 AM 46.9°F8.3°C 46.1°F7.8°C 97% 4.6 mph SE7.4 kmh SE 5.8 mph9.3 kmh 29.54 in1000.3 mb - 0.00 in0.0 mm 0.33 in8.4 mm
05:30 AM 47.0°F8.3°C 46.2°F7.9°C 97% 2.3 mph SE3.7 kmh SE 2.3 mph3.7 kmh 29.54 in1000.3 mb - 0.00 in0.0 mm 0.33 in8.4 mm
05:40 AM 47.2°F8.4°C 46.4°F8.0°C 97% 1.2 mph WSW1.9 kmh WSW 2.3 mph3.7 kmh 29.53 in1000.0 mb - 0.01 in0.3 mm 0.34 in8.6 mm
05:50 AM 47.5°F8.6°C 46.7°F8.2°C 97% 3.5 mph SSW5.6 kmh SSW 9.2 mph14.8 kmh 29.53 in1000.0 mb - 0.01 in0.3 mm 0.34 in8.6 mm
06:00 AM 48.2°F9.0°C 47.4°F8.6°C 97% 4.6 mph S7.4 kmh S 6.9 mph11.1 kmh 29.52 in999.7 mb - 0.01 in0.3 mm 0.34 in8.6 mm
06:10 AM 48.7°F9.3°C 47.9°F8.8°C 97% 4.6 mph SE7.4 kmh SE 5.8 mph9.3 kmh 29.52 in999.7 mb - 0.01 in0.3 mm 0.34 in8.6 mm
06:20 AM 48.9°F9.4°C 48.1°F8.9°C 97% 2.3 mph NNW3.7 kmh NNW 2.3 mph3.7 kmh 29.52 in999.7 mb - 0.01 in0.3 mm 0.34 in8.6 mm
06:30 AM 49.5°F9.7°C 48.7°F9.3°C 97% 2.3 mph S3.7 kmh S 4.6 mph7.4 kmh 29.52 in999.7 mb - 0.01 in0.3 mm 0.34 in8.6 mm
06:40 AM 50.6°F10.3°C 49.8°F9.9°C 97% 1.2 mph SSE1.9 kmh SSE 2.3 mph3.7 kmh 29.52 in999.7 mb - 0.00 in0.0 mm 0.34 in8.6 mm
06:50 AM 51.3°F10.7°C 50.5°F10.3°C 97% 6.9 mph SSW11.1 kmh SSW 6.9 mph11.1 kmh 29.51 in999.3 mb - 0.00 in0.0 mm 0.34 in8.6 mm
07:00 AM 51.6°F10.9°C 50.8°F10.4°C 97% 5.8 mph W9.3 kmh W 8.1 mph13.0 kmh 29.50 in999.0 mb - 0.00 in0.0 mm 0.34 in8.6 mm
07:10 AM 51.7°F10.9°C 50.9°F10.5°C 97% 4.6 mph W7.4 kmh W 5.8 mph9.3 kmh 29.49 in998.6 mb - 0.00 in0.0 mm 0.34 in8.6 mm
07:20 AM 51.7°F10.9°C 50.9°F10.5°C 97% 3.5 mph W5.6 kmh W 8.1 mph13.0 kmh 29.50 in999.0 mb - 0.00 in0.0 mm 0.34 in8.6 mm
07:30 AM 51.8°F11.0°C 51.0°F10.6°C 97% 5.8 mph SW9.3 kmh SW 16.1 mph25.9 kmh 29.50 in999.0 mb - 0.00 in0.0 mm 0.34 in8.6 mm
07:40 AM 51.9°F11.1°C 51.1°F10.6°C 97% 4.6 mph SE7.4 kmh SE 10.4 mph16.7 kmh 29.50 in999.0 mb - 0.00 in0.0 mm 0.34 in8.6 mm
07:50 AM 51.9°F11.1°C 51.1°F10.6°C 97% 4.6 mph S7.4 kmh S 6.9 mph11.1 kmh 29.50 in999.0 mb - 0.00 in0.0 mm 0.34 in8.6 mm
08:00 AM 51.9°F11.1°C 51.1°F10.6°C 97% 6.9 mph SW11.1 kmh SW 12.7 mph20.4 kmh 29.50 in999.0 mb - 0.00 in0.0 mm 0.34 in8.6 mm
08:10 AM 52.2°F11.2°C 51.4°F10.8°C 97% 3.5 mph WNW5.6 kmh WNW 12.7 mph20.4 kmh 29.50 in999.0 mb - 0.00 in0.0 mm 0.34 in8.6 mm
08:20 AM 52.4°F11.3°C 51.6°F10.9°C 97% 10.4 mph WSW16.7 kmh WSW 16.1 mph25.9 kmh 29.50 in999.0 mb - 0.00 in0.0 mm 0.34 in8.6 mm
08:30 AM 52.8°F11.6°C 52.0°F11.1°C 97% 6.9 mph W11.1 kmh W 15.0 mph24.1 kmh 29.50 in999.0 mb - 0.00 in0.0 mm 0.34 in8.6 mm
08:40 AM 52.9°F11.6°C 52.1°F11.2°C 97% 9.2 mph W14.8 kmh W 12.7 mph20.4 kmh 29.50 in999.0 mb - 0.00 in0.0 mm 0.34 in8.6 mm
08:50 AM 53.1°F11.7°C 52.3°F11.3°C 97% 4.6 mph NW7.4 kmh NW 4.6 mph7.4 kmh 29.52 in999.7 mb - 0.00 in0.0 mm 0.34 in8.6 mm
09:00 AM 53.3°F11.8°C 52.5°F11.4°C 97% 4.6 mph W7.4 kmh W 6.9 mph11.1 kmh 29.53 in1000.0 mb - 0.00 in0.0 mm 0.34 in8.6 mm
09:10 AM 53.1°F11.7°C 52.3°F11.3°C 97% 4.6 mph ESE7.4 kmh ESE 5.8 mph9.3 kmh 29.53 in1000.0 mb - 0.00 in0.0 mm 0.34 in8.6 mm
09:20 AM 53.2°F11.8°C 52.4°F11.3°C 97% 4.6 mph W7.4 kmh W 6.9 mph11.1 kmh 29.53 in1000.0 mb - 0.00 in0.0 mm 0.34 in8.6 mm
09:30 AM 53.4°F11.9°C 52.3°F11.3°C 96% 6.9 mph W11.1 kmh W 8.1 mph13.0 kmh 29.54 in1000.3 mb - 0.00 in0.0 mm 0.34 in8.6 mm
09:40 AM 54.1°F12.3°C 52.4°F11.3°C 94% 3.5 mph W5.6 kmh W 16.1 mph25.9 kmh 29.54 in1000.3 mb - 0.00 in0.0 mm 0.34 in8.6 mm
09:50 AM 54.4°F12.4°C 52.4°F11.3°C 93% 6.9 mph WSW11.1 kmh WSW 5.8 mph9.3 kmh 29.54 in1000.3 mb - 0.00 in0.0 mm 0.34 in8.6 mm
10:00 AM 54.7°F12.6°C 52.4°F11.3°C 92% 6.9 mph SW11.1 kmh SW 6.9 mph11.1 kmh 29.54 in1000.3 mb - 0.00 in0.0 mm 0.34 in8.6 mm
10:10 AM 54.8°F12.7°C 52.2°F11.2°C 91% 6.9 mph W11.1 kmh W 9.2 mph14.8 kmh 29.53 in1000.0 mb - 0.00 in0.0 mm 0.34 in8.6 mm
10:20 AM 54.6°F12.6°C 52.3°F11.3°C 92% 6.9 mph W11.1 kmh W 13.8 mph22.2 kmh 29.54 in1000.3 mb - 0.00 in0.0 mm 0.34 in8.6 mm
10:30 AM 54.6°F12.6°C 52.0°F11.1°C 91% 5.8 mph NW9.3 kmh NW 16.1 mph25.9 kmh 29.55 in1000.7 mb - 0.00 in0.0 mm 0.34 in8.6 mm
10:40 AM 54.7°F12.6°C 52.1°F11.2°C 91% 4.6 mph WNW7.4 kmh WNW 13.8 mph22.2 kmh 29.55 in1000.7 mb - 0.00 in0.0 mm 0.34 in8.6 mm
10:50 AM 55.2°F12.9°C 52.6°F11.4°C 91% 11.5 mph WNW18.5 kmh WNW 17.3 mph27.8 kmh 29.55 in1000.7 mb - 0.00 in0.0 mm 0.34 in8.6 mm
11:00 AM 56.0°F13.3°C 51.5°F10.8°C 85% 11.5 mph WSW18.5 kmh WSW 15.0 mph24.1 kmh 29.56 in1001.0 mb - 0.00 in0.0 mm 0.34 in8.6 mm
11:10 AM 56.4°F13.6°C 51.0°F10.6°C 82% 9.2 mph W14.8 kmh W 6.9 mph11.1 kmh 29.57 in1001.4 mb - 0.00 in0.0 mm 0.34 in8.6 mm
11:20 AM 56.6°F13.7°C 50.8°F10.4°C 81% 9.2 mph WNW14.8 kmh WNW 12.7 mph20.4 kmh 29.58 in1001.7 mb - 0.00 in0.0 mm 0.34 in8.6 mm
11:30 AM 56.3°F13.5°C 49.9°F9.9°C 79% 13.8 mph WSW22.2 kmh WSW 20.7 mph33.3 kmh 29.58 in1001.7 mb - 0.00 in0.0 mm 0.34 in8.6 mm
11:40 AM 55.9°F13.3°C 49.1°F9.5°C 78% 6.9 mph W11.1 kmh W 12.7 mph20.4 kmh 29.60 in1002.4 mb - 0.00 in0.0 mm 0.34 in8.6 mm
11:50 AM 56.5°F13.6°C 48.3°F9.1°C 74% 8.1 mph WNW13.0 kmh WNW 16.1 mph25.9 kmh 29.60 in1002.4 mb - 0.00 in0.0 mm 0.34 in8.6 mm
12:00 PM 56.7°F13.7°C 47.0°F8.3°C 70% 9.2 mph W14.8 kmh W 9.2 mph14.8 kmh 29.60 in1002.4 mb - 0.00 in0.0 mm 0.34 in8.6 mm
12:10 PM 57.0°F13.9°C 45.8°F7.7°C 66% 11.5 mph W18.5 kmh W 21.9 mph35.2 kmh 29.61 in1002.7 mb - 0.00 in0.0 mm 0.34 in8.6 mm
12:20 PM 56.7°F13.7°C 45.1°F7.3°C 65% 11.5 mph W18.5 kmh W 17.3 mph27.8 kmh 29.62 in1003.0 mb - 0.00 in0.0 mm 0.34 in8.6 mm
12:30 PM 56.5°F13.6°C 43.2°F6.2°C 61% 8.1 mph W13.0 kmh W 15.0 mph24.1 kmh 29.64 in1003.7 mb - 0.00 in0.0 mm 0.34 in8.6 mm
12:40 PM 55.8°F13.2°C 41.7°F5.4°C 59% 16.1 mph WSW25.9 kmh WSW 21.9 mph35.2 kmh 29.66 in1004.4 mb - 0.00 in0.0 mm 0.34 in8.6 mm
12:50 PM 55.1°F12.8°C 41.1°F5.1°C 59% 15.0 mph WSW24.1 kmh WSW 21.9 mph35.2 kmh 29.65 in1004.1 mb - 0.00 in0.0 mm 0.34 in8.6 mm
01:00 PM 54.3°F12.4°C 39.9°F4.4°C 58% 13.8 mph NW22.2 kmh NW 23.0 mph37.0 kmh 29.66 in1004.4 mb - 0.00 in0.0 mm 0.34 in8.6 mm
01:10 PM 54.1°F12.3°C 39.6°F4.2°C 58% 9.2 mph W14.8 kmh W 18.4 mph29.6 kmh 29.67 in1004.7 mb - 0.00 in0.0 mm 0.34 in8.6 mm
01:20 PM 54.6°F12.6°C 40.1°F4.5°C 58% 8.1 mph SW13.0 kmh SW 12.7 mph20.4 kmh 29.67 in1004.7 mb - 0.00 in0.0 mm 0.34 in8.6 mm
01:30 PM 53.9°F12.2°C 39.4°F4.1°C 58% 11.5 mph WNW18.5 kmh WNW 12.7 mph20.4 kmh 29.68 in1005.1 mb - 0.00 in0.0 mm 0.34 in8.6 mm
01:40 PM 53.2°F11.8°C 38.8°F3.8°C 58% 17.3 mph WNW27.8 kmh WNW 26.5 mph42.6 kmh 29.69 in1005.4 mb - 0.00 in0.0 mm 0.34 in8.6 mm
01:50 PM 52.3°F11.3°C 38.4°F3.6°C 59% 11.5 mph WSW18.5 kmh WSW 17.3 mph27.8 kmh 29.69 in1005.4 mb - 0.00 in0.0 mm 0.34 in8.6 mm
02:00 PM 52.2°F11.2°C 38.3°F3.5°C 59% 10.4 mph W16.7 kmh W 23.0 mph37.0 kmh 29.70 in1005.8 mb - 0.00 in0.0 mm 0.34 in8.6 mm
02:10 PM 51.9°F11.1°C 38.0°F3.3°C 59% 8.1 mph WSW13.0 kmh WSW 13.8 mph22.2 kmh 29.70 in1005.8 mb - 0.00 in0.0 mm 0.34 in8.6 mm
02:20 PM 51.6°F10.9°C 38.1°F3.4°C 60% 6.9 mph WNW11.1 kmh WNW 12.7 mph20.4 kmh 29.71 in1006.1 mb - 0.00 in0.0 mm 0.34 in8.6 mm
02:30 PM 51.0°F10.6°C 37.6°F3.1°C 60% 11.5 mph W18.5 kmh W 18.4 mph29.6 kmh 29.72 in1006.4 mb - 0.00 in0.0 mm 0.34 in8.6 mm
02:40 PM 50.6°F10.3°C 37.2°F2.9°C 60% 4.6 mph S7.4 kmh S 9.2 mph14.8 kmh 29.72 in1006.4 mb - 0.00 in0.0 mm 0.34 in8.6 mm
02:50 PM 50.9°F10.5°C 37.5°F3.1°C 60% 9.2 mph WNW14.8 kmh WNW 18.4 mph29.6 kmh 29.72 in1006.4 mb - 0.00 in0.0 mm 0.34 in8.6 mm
03:00 PM 51.1°F10.6°C 37.3°F2.9°C 59% 9.2 mph W14.8 kmh W 18.4 mph29.6 kmh 29.73 in1006.8 mb - 0.00 in0.0 mm 0.34 in8.6 mm
03:10 PM 50.7°F10.4°C 36.9°F2.7°C 59% 9.2 mph SW14.8 kmh SW 23.0 mph37.0 kmh 29.74 in1007.1 mb - 0.00 in0.0 mm 0.34 in8.6 mm
03:20 PM 49.8°F9.9°C 36.9°F2.7°C 61% 6.9 mph WNW11.1 kmh WNW 16.1 mph25.9 kmh 29.74 in1007.1 mb - 0.00 in0.0 mm 0.34 in8.6 mm
03:30 PM 49.1°F9.5°C 36.7°F2.6°C 62% 5.8 mph WSW9.3 kmh WSW 12.7 mph20.4 kmh 29.75 in1007.5 mb - 0.00 in0.0 mm 0.34 in8.6 mm
03:40 PM 48.9°F9.4°C 36.4°F2.4°C 62% 10.4 mph WSW16.7 kmh WSW 26.5 mph42.6 kmh 29.76 in1007.8 mb - 0.00 in0.0 mm 0.34 in8.6 mm
03:50 PM 48.6°F9.2°C 35.7°F2.1°C 61% 10.4 mph NW16.7 kmh NW 13.8 mph22.2 kmh 29.76 in1007.8 mb - 0.00 in0.0 mm 0.34 in8.6 mm
04:00 PM 48.3°F9.1°C 35.5°F1.9°C 61% 6.9 mph W11.1 kmh W 9.2 mph14.8 kmh 29.77 in1008.1 mb - 0.00 in0.0 mm 0.34 in8.6 mm
04:10 PM 47.9°F8.8°C 35.5°F1.9°C 62% 9.2 mph W14.8 kmh W 9.2 mph14.8 kmh 29.78 in1008.5 mb - 0.00 in0.0 mm 0.34 in8.6 mm
04:20 PM 47.7°F8.7°C 35.7°F2.1°C 63% 4.6 mph WNW7.4 kmh WNW 8.1 mph13.0 kmh 29.79 in1008.8 mb - 0.00 in0.0 mm 0.34 in8.6 mm
04:30 PM 47.4°F8.6°C 35.0°F1.7°C 62% 5.8 mph NW9.3 kmh NW 12.7 mph20.4 kmh 29.80 in1009.1 mb - 0.00 in0.0 mm 0.34 in8.6 mm
04:40 PM 47.2°F8.4°C 34.4°F1.3°C 61% 6.9 mph WSW11.1 kmh WSW 12.7 mph20.4 kmh 29.80 in1009.1 mb - 0.00 in0.0 mm 0.34 in8.6 mm
04:50 PM 46.7°F8.2°C 34.8°F1.6°C 63% 6.9 mph WNW11.1 kmh WNW 12.7 mph20.4 kmh 29.81 in1009.5 mb - 0.00 in0.0 mm 0.34 in8.6 mm
05:00 PM 46.3°F7.9°C 34.4°F1.3°C 63% 5.8 mph WSW9.3 kmh WSW 8.1 mph13.0 kmh 29.82 in1009.8 mb - 0.00 in0.0 mm 0.34 in8.6 mm
05:10 PM 45.8°F7.7°C 34.3°F1.3°C 64% 11.5 mph WNW18.5 kmh WNW 16.1 mph25.9 kmh 29.83 in1010.2 mb - 0.00 in0.0 mm 0.34 in8.6 mm
05:20 PM 45.2°F7.3°C 34.2°F1.2°C 65% 3.5 mph WSW5.6 kmh WSW 5.8 mph9.3 kmh 29.83 in1010.2 mb - 0.00 in0.0 mm 0.34 in8.6 mm
05:30 PM 44.7°F7.1°C 33.6°F0.9°C 65% 8.1 mph WSW13.0 kmh WSW 9.2 mph14.8 kmh 29.84 in1010.5 mb - 0.00 in0.0 mm 0.34 in8.6 mm
05:40 PM 44.4°F6.9°C 33.4°F0.8°C 65% 12.7 mph WSW20.4 kmh WSW 20.7 mph33.3 kmh 29.85 in1010.8 mb - 0.00 in0.0 mm 0.34 in8.6 mm
05:50 PM 44.1°F6.7°C 33.1°F0.6°C 65% 4.6 mph NW7.4 kmh NW 5.8 mph9.3 kmh 29.86 in1011.2 mb - 0.00 in0.0 mm 0.34 in8.6 mm
06:00 PM 43.5°F6.4°C 33.7°F0.9°C 68% 4.6 mph NW7.4 kmh NW 5.8 mph9.3 kmh 29.87 in1011.5 mb - 0.00 in0.0 mm 0.34 in8.6 mm
06:10 PM 43.1°F6.2°C 32.5°F0.3°C 66% 5.8 mph WSW9.3 kmh WSW 16.1 mph25.9 kmh 29.90 in1012.5 mb - 0.00 in0.0 mm 0.34 in8.6 mm
06:20 PM 42.9°F6.1°C 31.6°F-0.2°C 64% 9.2 mph W14.8 kmh W 8.1 mph13.0 kmh 29.90 in1012.5 mb - 0.00 in0.0 mm 0.34 in8.6 mm
06:30 PM 42.6°F5.9°C 31.7°F-0.2°C 65% 8.1 mph WSW13.0 kmh WSW 9.2 mph14.8 kmh 29.89 in1012.2 mb - 0.00 in0.0 mm 0.34 in8.6 mm
06:40 PM 42.2°F5.7°C 31.3°F-0.4°C 65% 6.9 mph WNW11.1 kmh WNW 8.1 mph13.0 kmh 29.90 in1012.5 mb - 0.00 in0.0 mm 0.34 in8.6 mm
06:50 PM 41.9°F5.5°C 31.7°F-0.2°C 67% 6.9 mph W11.1 kmh W 9.2 mph14.8 kmh 29.90 in1012.5 mb - 0.00 in0.0 mm 0.34 in8.6 mm
07:00 PM 41.3°F5.2°C 32.2°F0.1°C 70% 3.5 mph W5.6 kmh W 2.3 mph3.7 kmh 29.92 in1013.2 mb - 0.00 in0.0 mm 0.34 in8.6 mm
07:10 PM 40.5°F4.7°C 33.2°F0.7°C 75% 4.6 mph WSW7.4 kmh WSW 5.8 mph9.3 kmh 29.92 in1013.2 mb - 0.00 in0.0 mm 0.34 in8.6 mm
07:20 PM 40.2°F4.6°C 32.6°F0.3°C 74% 4.6 mph W7.4 kmh W 12.7 mph20.4 kmh 29.93 in1013.5 mb - 0.00 in0.0 mm 0.34 in8.6 mm
07:30 PM 40.3°F4.6°C 32.3°F0.2°C 73% 4.6 mph WNW7.4 kmh WNW 8.1 mph13.0 kmh 29.93 in1013.5 mb - 0.00 in0.0 mm 0.34 in8.6 mm
07:40 PM 40.4°F4.7°C 32.4°F0.2°C 73% 4.6 mph WSW7.4 kmh WSW 12.7 mph20.4 kmh 29.94 in1013.9 mb - 0.00 in0.0 mm 0.34 in8.6 mm
07:50 PM 40.2°F4.6°C 31.9°F-0.1°C 72% 5.8 mph WSW9.3 kmh WSW 6.9 mph11.1 kmh 29.94 in1013.9 mb - 0.00 in0.0 mm 0.34 in8.6 mm
08:00 PM 39.8°F4.3°C 31.8°F-0.1°C 73% 2.3 mph NW3.7 kmh NW 2.3 mph3.7 kmh 29.95 in1014.2 mb - 0.00 in0.0 mm 0.34 in8.6 mm
08:10 PM 39.5°F4.2°C 31.9°F-0.1°C 74% 3.5 mph NNW5.6 kmh NNW 4.6 mph7.4 kmh 29.96 in1014.6 mb - 0.00 in0.0 mm 0.34 in8.6 mm
08:20 PM 39.2°F4.0°C 31.6°F-0.2°C 74% 6.9 mph NW11.1 kmh NW 9.2 mph14.8 kmh 29.97 in1014.9 mb - 0.00 in0.0 mm 0.34 in8.6 mm
08:30 PM 38.9°F3.8°C 31.3°F-0.4°C 74% 2.3 mph NNW3.7 kmh NNW 2.3 mph3.7 kmh 29.97 in1014.9 mb - 0.00 in0.0 mm 0.34 in8.6 mm
08:40 PM 38.8°F3.8°C 31.6°F-0.2°C 75% 1.2 mph WSW1.9 kmh WSW 1.2 mph1.9 kmh 29.99 in1015.6 mb - 0.00 in0.0 mm 0.34 in8.6 mm
08:50 PM 38.3°F3.5°C 30.7°F-0.7°C 74% 3.5 mph WSW5.6 kmh WSW 6.9 mph11.1 kmh 29.99 in1015.6 mb - 0.00 in0.0 mm 0.34 in8.6 mm
09:00 PM 38.2°F3.4°C 29.6°F-1.3°C 71% 3.5 mph NE5.6 kmh NE 8.1 mph13.0 kmh 29.99 in1015.6 mb - 0.00 in0.0 mm 0.34 in8.6 mm
09:10 PM 37.9°F3.3°C 28.3°F-2.1°C 68% 4.6 mph WSW7.4 kmh WSW 6.9 mph11.1 kmh 30.00 in1015.9 mb - 0.00 in0.0 mm 0.34 in8.6 mm
09:20 PM 37.8°F3.2°C 28.2°F-2.1°C 68% 4.6 mph WNW7.4 kmh WNW 8.1 mph13.0 kmh 30.00 in1015.9 mb - 0.00 in0.0 mm 0.34 in8.6 mm
09:30 PM 37.4°F3.0°C 27.8°F-2.3°C 68% 3.5 mph W5.6 kmh W 12.7 mph20.4 kmh 30.01 in1016.3 mb - 0.00 in0.0 mm 0.34 in8.6 mm
09:40 PM 37.4°F3.0°C 27.4°F-2.6°C 67% 4.6 mph WNW7.4 kmh WNW 5.8 mph9.3 kmh 30.01 in1016.3 mb - 0.00 in0.0 mm 0.34 in8.6 mm
09:50 PM 37.0°F2.8°C 27.4°F-2.6°C 68% 5.8 mph W9.3 kmh W 8.1 mph13.0 kmh 30.01 in1016.3 mb - 0.00 in0.0 mm 0.34 in8.6 mm
10:00 PM 36.8°F2.7°C 27.6°F-2.4°C 69% 2.3 mph NW3.7 kmh NW 2.3 mph3.7 kmh 30.02 in1016.6 mb - 0.00 in0.0 mm 0.34 in8.6 mm
10:10 PM 36.2°F2.3°C 28.0°F-2.2°C 72% Calm Calm 2.3 mph3.7 kmh 30.02 in1016.6 mb - 0.00 in0.0 mm 0.34 in8.6 mm
10:20 PM 35.5°F1.9°C 27.7°F-2.4°C 73% 2.3 mph NE3.7 kmh NE 4.6 mph7.4 kmh 30.03 in1016.9 mb - 0.00 in0.0 mm 0.34 in8.6 mm
10:30 PM 35.5°F1.9°C 27.4°F-2.6°C 72% 3.5 mph WSW5.6 kmh WSW 5.8 mph9.3 kmh 30.03 in1016.9 mb - 0.00 in0.0 mm 0.34 in8.6 mm
10:40 PM 34.9°F1.6°C 27.8°F-2.3°C 75% 3.5 mph W5.6 kmh W 2.3 mph3.7 kmh 30.03 in1016.9 mb - 0.00 in0.0 mm 0.34 in8.6 mm
10:50 PM 34.5°F1.4°C 28.0°F-2.2°C 77% 2.3 mph WNW3.7 kmh WNW 2.3 mph3.7 kmh 30.04 in1017.3 mb - 0.00 in0.0 mm 0.34 in8.6 mm
11:00 PM 33.8°F1.0°C 28.0°F-2.2°C 79% 2.3 mph SW3.7 kmh SW 2.3 mph3.7 kmh 30.04 in1017.3 mb - 0.00 in0.0 mm 0.34 in8.6 mm
11:10 PM 33.5°F0.8°C 27.3°F-2.6°C 78% 2.3 mph W3.7 kmh W 2.3 mph3.7 kmh 30.04 in1017.3 mb - 0.00 in0.0 mm 0.34 in8.6 mm
11:20 PM 32.9°F0.5°C 27.4°F-2.6°C 80% 1.2 mph W1.9 kmh W 2.3 mph3.7 kmh 30.04 in1017.3 mb - 0.00 in0.0 mm 0.34 in8.6 mm
11:30 PM 32.7°F0.4°C 28.1°F-2.2°C 83% Calm Calm -- 30.04 in1017.3 mb - 0.00 in0.0 mm 0.34 in8.6 mm
11:40 PM 32.2°F0.1°C 27.6°F-2.4°C 83% Calm Calm 1.2 mph1.9 kmh 30.05 in1017.6 mb - 0.00 in0.0 mm 0.34 in8.6 mm
11:50 PM 31.6°F-0.2°C 27.6°F-2.4°C 85% 3.5 mph W5.6 kmh W 5.8 mph9.3 kmh 30.05 in1017.6 mb - 0.00 in0.0 mm 0.34 in8.6 mm